Station Historical Data
Daily Summary for February 17, 2017 Units:  English    Metric   Both
« Previous Day
Next Day »
Daily Weekly Monthly Yearly Custom
  High: Low: Average:
Temperature: 39.0 °F 17.4 °F 29.2 °F
Dew Point: 25.7 °F 13.2 °F 19.7 °F
Humidity: 85% 50% 68%
Wind Speed: 6.0mph 0.0mph 1.5mph
Wind Gust: 12.0mph - -
Wind- - SSW
Pressure: 29.98 in 29.75 in -
Precipitation: 0.00 in    
Historical Graphs
 
 
Tabular Data for February 17, 2017
Time Temperature Dew Point Pressure Wind Wind Speed Wind Gust Humidity Rainfall Rate (Hourly)
00:04 22.6 °F 15.9 °F 29.97 in WSW 2.0 mph 6.0 mph 75% 0.00 in
00:09 22.6 °F 15.9 °F 29.98 in WSW 3.0 mph 6.0 mph 75% 0.00 in
00:14 22.7 °F 16.0 °F 29.98 in West 5.0 mph 7.0 mph 75% 0.00 in
00:19 22.6 °F 15.9 °F 29.98 in West 4.0 mph 8.0 mph 75% 0.00 in
00:24 22.6 °F 16.2 °F 29.98 in West 4.0 mph 8.0 mph 76% 0.00 in
00:29 22.7 °F 16.3 °F 29.98 in WNW 4.0 mph 7.0 mph 76% 0.00 in
00:34 22.6 °F 16.2 °F 29.98 in West 5.0 mph 12.0 mph 76% 0.00 in
00:39 22.6 °F 16.2 °F 29.98 in NE 5.0 mph 9.0 mph 76% 0.00 in
00:44 22.7 °F 16.0 °F 29.98 in West 4.0 mph 8.0 mph 75% 0.00 in
00:49 22.6 °F 15.9 °F 29.98 in NW 5.0 mph 10.0 mph 75% 0.00 in
00:54 22.5 °F 15.8 °F 29.97 in NW 5.0 mph 10.0 mph 75% 0.00 in
00:59 22.4 °F 16.0 °F 29.97 in NW 4.0 mph 8.0 mph 76% 0.00 in
01:04 22.4 °F 16.0 °F 29.97 in NW 3.0 mph 9.0 mph 76% 0.00 in
01:09 22.4 °F 16.0 °F 29.97 in NW 6.0 mph 11.0 mph 76% 0.00 in
01:14 22.3 °F 15.9 °F 29.97 in NW 2.0 mph 9.0 mph 76% 0.00 in
01:19 22.2 °F 15.8 °F 29.97 in NNW 3.0 mph 8.0 mph 76% 0.00 in
01:24 22.2 °F 15.8 °F 29.97 in NNW 4.0 mph 8.0 mph 76% 0.00 in
01:29 22.1 °F 15.7 °F 29.97 in NW 4.0 mph 10.0 mph 76% 0.00 in
01:34 22.2 °F 15.8 °F 29.97 in North 2.0 mph 7.0 mph 76% 0.00 in
01:39 22.2 °F 16.1 °F 29.97 in NW 3.0 mph 7.0 mph 77% 0.00 in
01:44 22.2 °F 16.1 °F 29.97 in NNW 2.0 mph 5.0 mph 77% 0.00 in
01:49 22.2 °F 16.1 °F 29.97 in WNW 1.0 mph 7.0 mph 77% 0.00 in
01:54 22.2 °F 16.1 °F 29.97 in NW 3.0 mph 7.0 mph 77% 0.00 in
01:59 22.4 °F 16.3 °F 29.97 in NW 3.0 mph 6.0 mph 77% 0.00 in
02:04 22.5 °F 16.1 °F 29.97 in NW 3.0 mph 7.0 mph 76% 0.00 in
02:09 22.5 °F 16.1 °F 29.97 in NW 2.0 mph 7.0 mph 76% 0.00 in
02:14 22.5 °F 16.1 °F 29.97 in NW 3.0 mph 7.0 mph 76% 0.00 in
02:19 22.6 °F 16.2 °F 29.97 in NW 5.0 mph 6.0 mph 76% 0.00 in
02:24 22.6 °F 16.2 °F 29.97 in NW 3.0 mph 7.0 mph 76% 0.00 in
02:29 22.7 °F 16.3 °F 29.97 in NW 3.0 mph 7.0 mph 76% 0.00 in
02:34 22.7 °F 16.3 °F 29.97 in NW 3.0 mph 7.0 mph 76% 0.00 in
02:39 22.7 °F 16.3 °F 29.97 in NW 6.0 mph 8.0 mph 76% 0.00 in
02:44 22.6 °F 16.2 °F 29.97 in WNW 3.0 mph 8.0 mph 76% 0.00 in
02:49 22.5 °F 16.1 °F 29.96 in NNW 5.0 mph 8.0 mph 76% 0.00 in
02:54 22.5 °F 16.1 °F 29.96 in NW 3.0 mph 8.0 mph 76% 0.00 in
02:59 22.4 °F 16.0 °F 29.96 in WNW 3.0 mph 7.0 mph 76% 0.00 in
03:04 22.3 °F 15.9 °F 29.96 in NW 3.0 mph 7.0 mph 76% 0.00 in
03:09 22.2 °F 15.8 °F 29.96 in WNW 1.0 mph 4.0 mph 76% 0.00 in
03:14 22.1 °F 16.0 °F 29.96 in NW 2.0 mph 3.0 mph 77% 0.00 in
03:19 22.0 °F 15.6 °F 29.96 in WNW 2.0 mph 5.0 mph 76% 0.00 in
03:24 21.9 °F 15.8 °F 29.96 in WNW 2.0 mph 5.0 mph 77% 0.00 in
03:29 21.8 °F 15.7 °F 29.96 in WNW 3.0 mph 4.0 mph 77% 0.00 in
03:34 21.8 °F 15.7 °F 29.96 in NNW 2.0 mph 6.0 mph 77% 0.00 in
03:39 21.8 °F 15.7 °F 29.97 in NNW 2.0 mph 3.0 mph 77% 0.00 in
03:44 21.7 °F 15.6 °F 29.97 in NW 2.0 mph 4.0 mph 77% 0.00 in
03:49 21.6 °F 15.5 °F 29.96 in NW 2.0 mph 3.0 mph 77% 0.00 in
03:54 21.4 °F 15.3 °F 29.97 in NW 1.0 mph 3.0 mph 77% 0.00 in
03:59 21.1 °F 15.3 °F 29.97 in NW 1.0 mph 3.0 mph 78% 0.00 in
04:04 20.7 °F 14.9 °F 29.97 in NNW 1.0 mph 3.0 mph 78% 0.00 in
04:09 20.5 °F 14.7 °F 29.97 in NW 1.0 mph 3.0 mph 78% 0.00 in
04:14 20.2 °F 14.7 °F 29.97 in Calm     79% 0.00 in
04:19 19.8 °F 14.3 °F 29.97 in Calm     79% 0.00 in
04:24 19.6 °F 14.4 °F 29.97 in Calm     80% 0.00 in
04:29 19.3 °F 14.1 °F 29.97 in Calm     80% 0.00 in
04:34 18.9 °F 14.0 °F 29.97 in Calm     81% 0.00 in
04:39 18.6 °F 13.7 °F 29.97 in Calm     81% 0.00 in
04:44 18.3 °F 13.7 °F 29.96 in Calm     82% 0.00 in
04:49 18.0 °F 13.4 °F 29.96 in Calm     82% 0.00 in
04:54 17.9 °F 13.6 °F 29.95 in Calm     83% 0.00 in
04:59 17.9 °F 13.6 °F 29.95 in Calm     83% 0.00 in
05:04 17.5 °F 13.2 °F 29.95 in Calm     83% 0.00 in
05:09 17.4 °F 13.4 °F 29.95 in Calm     84% 0.00 in
05:14 17.4 °F 13.4 °F 29.95 in Calm     84% 0.00 in
05:19 17.6 °F 13.9 °F 29.95 in Calm     85% 0.00 in
05:24 17.8 °F 14.1 °F 29.95 in Calm     85% 0.00 in
05:29 18.0 °F 14.3 °F 29.95 in Calm     85% 0.00 in
05:39 18.4 °F 14.6 °F 29.94 in Calm     85% 0.00 in
05:44 18.5 °F 14.7 °F 29.95 in Calm     85% 0.00 in
05:49 18.8 °F 15.0 °F 29.95 in Calm     85% 0.00 in
05:54 18.8 °F 14.8 °F 29.95 in Calm     84% 0.00 in
05:59 18.9 °F 14.9 °F 29.95 in Calm     84% 0.00 in
06:04 18.9 °F 14.9 °F 29.95 in Calm     84% 0.00 in
06:09 19.0 °F 15.0 °F 29.95 in Calm     84% 0.00 in
06:14 19.2 °F 15.4 °F 29.94 in Calm     85% 0.00 in
06:19 19.4 °F 15.6 °F 29.94 in Calm     85% 0.00 in
06:24 19.6 °F 15.8 °F 29.94 in Calm     85% 0.00 in
06:29 20.0 °F 16.2 °F 29.94 in Calm     85% 0.00 in
06:34 20.3 °F 16.2 °F 29.94 in Calm     84% 0.00 in
06:39 20.5 °F 16.4 °F 29.94 in Calm     84% 0.00 in
06:44 20.6 °F 16.5 °F 29.94 in Calm     84% 0.00 in
06:49 20.8 °F 16.5 °F 29.94 in Calm     83% 0.00 in
06:54 20.9 °F 16.5 °F 29.94 in Calm     83% 0.00 in
06:59 21.0 °F 16.4 °F 29.95 in Calm     82% 0.00 in
07:04 21.1 °F 16.5 °F 29.94 in Calm     82% 0.00 in
07:09 21.2 °F 16.6 °F 29.94 in Calm     82% 0.00 in
07:14 21.3 °F 16.4 °F 29.95 in Calm     81% 0.00 in
07:19 21.5 °F 16.6 °F 29.95 in Calm     81% 0.00 in
07:24 21.6 °F 16.7 °F 29.95 in Calm     81% 0.00 in
07:29 21.6 °F 16.7 °F 29.95 in Calm     81% 0.00 in
07:34 21.7 °F 16.8 °F 29.95 in Calm     81% 0.00 in
07:39 21.7 °F 16.5 °F 29.95 in Calm     80% 0.00 in
07:44 21.8 °F 16.6 °F 29.95 in Calm     80% 0.00 in
07:49 22.0 °F 16.8 °F 29.96 in Calm     80% 0.00 in
07:54 22.0 °F 16.8 °F 29.96 in South 2.0 mph 3.0 mph 80% 0.00 in
07:59 21.8 °F 16.6 °F 29.96 in South 1.0 mph 3.0 mph 80% 0.00 in
08:04 21.7 °F 16.5 °F 29.96 in South 1.0 mph 2.0 mph 80% 0.00 in
08:09 21.8 °F 16.6 °F 29.97 in South 1.0 mph 3.0 mph 80% 0.00 in
08:14 21.9 °F 16.7 °F 29.97 in South 1.0 mph 3.0 mph 80% 0.00 in
08:19 22.2 °F 17.0 °F 29.97 in SE 1.0 mph 4.0 mph 80% 0.00 in
08:24 22.4 °F 16.9 °F 29.97 in SE 2.0 mph 3.0 mph 79% 0.00 in
08:29 22.6 °F 16.8 °F 29.97 in SSE 3.0 mph 3.0 mph 78% 0.00 in
08:34 22.9 °F 17.1 °F 29.96 in SSE 1.0 mph 4.0 mph 78% 0.00 in
08:39 23.2 °F 17.4 °F 29.97 in SSE 2.0 mph 4.0 mph 78% 0.00 in
08:44 23.4 °F 17.3 °F 29.97 in SSE 1.0 mph 3.0 mph 77% 0.00 in
08:49 23.8 °F 17.3 °F 29.97 in SE 1.0 mph 4.0 mph 76% 0.00 in
08:54 24.0 °F 17.5 °F 29.97 in SE 1.0 mph 4.0 mph 76% 0.00 in
08:59 24.0 °F 17.5 °F 29.96 in SSE 1.0 mph 4.0 mph 76% 0.00 in
09:04 24.3 °F 17.5 °F 29.96 in SSE 2.0 mph 4.0 mph 75% 0.00 in
09:09 24.6 °F 17.8 °F 29.96 in SSE 2.0 mph 4.0 mph 75% 0.00 in
09:14 25.0 °F 17.9 °F 29.96 in Calm   3.0 mph 74% 0.00 in
09:19 25.2 °F 18.1 °F 29.96 in ESE 1.0 mph 3.0 mph 74% 0.00 in
09:24 25.3 °F 17.9 °F 29.96 in SE 1.0 mph 4.0 mph 73% 0.00 in
09:29 25.4 °F 17.9 °F 29.96 in SSE 1.0 mph 4.0 mph 73% 0.00 in
09:34 25.3 °F 17.9 °F 29.96 in NE 2.0 mph 3.0 mph 73% 0.00 in
09:39 25.9 °F 18.4 °F 29.96 in East 2.0 mph 4.0 mph 73% 0.00 in
09:44 26.6 °F 18.8 °F 29.97 in Calm   3.0 mph 72% 0.00 in
09:49 26.7 °F 18.6 °F 29.97 in NNW 1.0 mph 3.0 mph 71% 0.00 in
09:54 26.7 °F 18.2 °F 29.98 in SSW 2.0 mph 5.0 mph 70% 0.00 in
09:59 26.5 °F 18.7 °F 29.98 in SW 2.0 mph 5.0 mph 72% 0.00 in
10:04 26.9 °F 18.1 °F 29.97 in SW 1.0 mph 3.0 mph 69% 0.00 in
10:09 27.6 °F 19.8 °F 29.97 in SSW 1.0 mph 4.0 mph 72% 0.00 in
10:14 27.6 °F 19.1 °F 29.97 in SSW 2.0 mph 6.0 mph 70% 0.00 in
10:19 28.0 °F 19.8 °F 29.97 in SSE 2.0 mph 6.0 mph 71% 0.00 in
10:24 27.8 °F 18.6 °F 29.97 in South 2.0 mph 5.0 mph 68% 0.00 in
10:29 28.2 °F 19.7 °F 29.96 in South 2.0 mph 7.0 mph 70% 0.01 in
10:34 28.3 °F 19.8 °F 29.96 in South 2.0 mph 7.0 mph 70% 0.01 in
10:39 28.8 °F 19.9 °F 29.96 in South 3.0 mph 7.0 mph 69% 0.01 in
10:44 29.5 °F 19.9 °F 29.96 in SW 2.0 mph 5.0 mph 67% 0.01 in
10:49 29.3 °F 19.7 °F 29.96 in SSW 3.0 mph 6.0 mph 67% 0.01 in
10:54 29.8 °F 20.5 °F 29.96 in SSE 6.0 mph 7.0 mph 68% 0.01 in
10:59 30.4 °F 20.4 °F 29.95 in South 2.0 mph 7.0 mph 66% 0.01 in
11:04 30.2 °F 19.8 °F 29.95 in SW 1.0 mph 8.0 mph 65% 0.01 in
11:09 30.3 °F 19.6 °F 29.95 in South 2.0 mph 8.0 mph 64% 0.01 in
11:14 30.5 °F 19.8 °F 29.95 in SSW 2.0 mph 5.0 mph 64% 0.01 in
11:24 31.3 °F 20.2 °F 29.94 in SSW 3.0 mph 7.0 mph 63% 0.01 in
11:29 31.3 °F 21.3 °F 29.94 in South 3.0 mph 6.0 mph 66% 0.00 in
11:34 31.7 °F 22.0 °F 29.95 in West 4.0 mph 5.0 mph 67% 0.00 in
11:39 32.4 °F 21.6 °F 29.95 in West 3.0 mph 9.0 mph 64% 0.00 in
11:44 32.1 °F 21.3 °F 29.95 in SW 2.0 mph 5.0 mph 64% 0.00 in
11:49 32.2 °F 21.4 °F 29.95 in WSW 5.0 mph 7.0 mph 64% 0.00 in
11:54 31.6 °F 20.4 °F 29.95 in SW 4.0 mph 8.0 mph 63% 0.00 in
11:59 31.3 °F 20.5 °F 29.95 in WSW 2.0 mph 5.0 mph 64% 0.00 in
12:04 32.8 °F 22.0 °F 29.94 in SW 4.0 mph 8.0 mph 64% 0.00 in
12:09 32.8 °F 22.7 °F 29.94 in West 4.0 mph 7.0 mph 66% 0.00 in
12:14 33.2 °F 21.2 °F 29.94 in West 3.0 mph 7.0 mph 61% 0.00 in
12:19 33.6 °F 23.1 °F 29.93 in WNW 3.0 mph 6.0 mph 65% 0.00 in
12:24 32.9 °F 21.3 °F 29.93 in West 2.0 mph 5.0 mph 62% 0.00 in
12:29 32.8 °F 22.3 °F 29.92 in SSW 2.0 mph 8.0 mph 65% 0.00 in
12:34 33.4 °F 22.1 °F 29.91 in SW 3.0 mph 8.0 mph 63% 0.00 in
12:39 32.8 °F 21.2 °F 29.91 in SW 3.0 mph 6.0 mph 62% 0.00 in
12:44 32.7 °F 21.9 °F 29.90 in NNE 2.0 mph 4.0 mph 64% 0.00 in
12:49 33.1 °F 21.9 °F 29.90 in North 1.0 mph 4.0 mph 63% 0.00 in
12:54 33.8 °F 21.8 °F 29.91 in SW 3.0 mph 6.0 mph 61% 0.00 in
12:59 34.0 °F 21.6 °F 29.91 in SSW 3.0 mph 5.0 mph 60% 0.00 in
13:04 34.0 °F 21.6 °F 29.91 in SSW 2.0 mph 5.0 mph 60% 0.00 in
13:09 34.6 °F 20.9 °F 29.91 in North 3.0 mph 3.0 mph 57% 0.00 in
13:14 34.3 °F 21.8 °F 29.91 in NW 1.0 mph 4.0 mph 60% 0.00 in
13:19 34.7 °F 21.0 °F 29.90 in WNW 2.0 mph 5.0 mph 57% 0.00 in
13:24 34.3 °F 19.8 °F 29.90 in WSW 3.0 mph 7.0 mph 55% 0.00 in
13:29 34.9 °F 20.8 °F 29.90 in WSW 3.0 mph 7.0 mph 56% 0.00 in
13:34 34.4 °F 19.5 °F 29.89 in WSW 2.0 mph 6.0 mph 54% 0.00 in
13:39 34.8 °F 21.1 °F 29.89 in WSW 2.0 mph 6.0 mph 57% 0.00 in
13:44 35.5 °F 19.6 °F 29.89 in West 2.0 mph 6.0 mph 52% 0.00 in
13:49 36.0 °F 20.9 °F 29.89 in SSE 2.0 mph 5.0 mph 54% 0.00 in
13:54 35.5 °F 20.9 °F 29.89 in Calm   4.0 mph 55% 0.00 in
13:59 36.1 °F 19.7 °F 29.88 in SSW 2.0 mph 5.0 mph 51% 0.00 in
14:04 36.1 °F 21.5 °F 29.88 in SSW 2.0 mph 5.0 mph 55% 0.00 in
14:09 35.9 °F 19.5 °F 29.87 in ESE 3.0 mph 4.0 mph 51% 0.00 in
14:14 36.2 °F 21.1 °F 29.87 in SSE 2.0 mph 7.0 mph 54% 0.00 in
14:19 35.7 °F 20.2 °F 29.87 in Calm   3.0 mph 53% 0.00 in
14:24 37.2 °F 22.9 °F 29.87 in West 1.0 mph 3.0 mph 56% 0.00 in
14:29 36.7 °F 20.3 °F 29.88 in West 1.0 mph 3.0 mph 51% 0.00 in
14:34 37.2 °F 21.2 °F 29.87 in WSW 1.0 mph 4.0 mph 52% 0.00 in
14:39 36.9 °F 21.8 °F 29.88 in SW 1.0 mph 5.0 mph 54% 0.00 in
14:49 37.5 °F 22.3 °F 29.88 in WSW 2.0 mph 5.0 mph 54% 0.00 in
14:54 37.2 °F 22.5 °F 29.88 in SSE 3.0 mph 4.0 mph 55% 0.00 in
14:59 37.0 °F 21.9 °F 29.88 in SSW 1.0 mph 4.0 mph 54% 0.00 in
15:04 37.1 °F 22.4 °F 29.88 in SW 5.0 mph 6.0 mph 55% 0.00 in
15:09 38.0 °F 23.7 °F 29.87 in West 2.0 mph 5.0 mph 56% 0.00 in
15:14 37.7 °F 22.1 °F 29.87 in SW 2.0 mph 5.0 mph 53% 0.00 in
15:19 38.1 °F 23.3 °F 29.87 in WNW 1.0 mph 4.0 mph 55% 0.00 in
15:24 38.4 °F 23.6 °F 29.86 in Calm   4.0 mph 55% 0.00 in
15:29 38.3 °F 23.1 °F 29.87 in SW 3.0 mph 5.0 mph 54% 0.00 in
15:34 38.6 °F 23.4 °F 29.87 in SW 2.0 mph 5.0 mph 54% 0.00 in
15:39 38.3 °F 23.1 °F 29.87 in SSW 2.0 mph 5.0 mph 54% 0.00 in
15:44 38.9 °F 23.7 °F 29.86 in SSE 2.0 mph 5.0 mph 54% 0.00 in
15:49 39.0 °F 22.8 °F 29.86 in ESE 2.0 mph 6.0 mph 52% 0.00 in
15:54 38.4 °F 23.6 °F 29.86 in East 2.0 mph 6.0 mph 55% 0.00 in
15:59 38.4 °F 21.8 °F 29.85 in ENE 1.0 mph 5.0 mph 51% 0.00 in
16:04 38.3 °F 22.2 °F 29.86 in East 2.0 mph 5.0 mph 52% 0.00 in
16:09 38.5 °F 22.8 °F 29.86 in SSE 3.0 mph 5.0 mph 53% 0.00 in
16:14 38.3 °F 21.3 °F 29.86 in SSE 3.0 mph 4.0 mph 50% 0.00 in
16:19 38.0 °F 21.5 °F 29.86 in South 2.0 mph 5.0 mph 51% 0.00 in
16:24 37.9 °F 21.4 °F 29.86 in SSE 2.0 mph 6.0 mph 51% 0.00 in
16:29 38.1 °F 22.5 °F 29.86 in SE 3.0 mph 4.0 mph 53% 0.00 in
16:34 38.0 °F 21.5 °F 29.86 in Calm   3.0 mph 51% 0.00 in
16:39 37.7 °F 21.2 °F 29.86 in South 1.0 mph 4.0 mph 51% 0.00 in
16:44 37.8 °F 21.7 °F 29.87 in South 1.0 mph 4.0 mph 52% 0.00 in
16:49 37.8 °F 21.7 °F 29.86 in South 1.0 mph 2.0 mph 52% 0.00 in
16:54 37.8 °F 21.7 °F 29.85 in South 1.0 mph 3.0 mph 52% 0.00 in
16:59 38.0 °F 22.4 °F 29.85 in South 2.0 mph 3.0 mph 53% 0.00 in
17:04 38.0 °F 21.9 °F 29.85 in SE 2.0 mph 2.0 mph 52% 0.00 in
17:09 37.9 °F 22.3 °F 29.85 in Calm   2.0 mph 53% 0.00 in
17:14 37.8 °F 22.2 °F 29.85 in Calm   2.0 mph 53% 0.00 in
17:19 37.7 °F 22.1 °F 29.85 in Calm   2.0 mph 53% 0.00 in
17:24 37.6 °F 22.0 °F 29.85 in SE 1.0 mph 2.0 mph 53% 0.00 in
17:29 37.6 °F 21.5 °F 29.85 in Calm     52% 0.00 in
17:34 37.6 °F 21.5 °F 29.85 in Calm     52% 0.00 in
17:39 37.5 °F 21.9 °F 29.85 in Calm     53% 0.00 in
17:44 37.3 °F 21.7 °F 29.85 in Calm     53% 0.00 in
17:49 37.2 °F 22.1 °F 29.85 in Calm     54% 0.00 in
17:54 37.2 °F 22.1 °F 29.85 in Calm     54% 0.00 in
17:59 37.1 °F 22.4 °F 29.85 in Calm     55% 0.00 in
18:04 36.9 °F 22.7 °F 29.85 in Calm     56% 0.00 in
18:09 36.8 °F 22.6 °F 29.85 in Calm     56% 0.00 in
18:14 36.7 °F 22.9 °F 29.85 in Calm     57% 0.00 in
18:19 36.5 °F 22.7 °F 29.86 in Calm     57% 0.00 in
18:24 36.6 °F 23.2 °F 29.85 in NE 1.0 mph 5.0 mph 58% 0.00 in
18:29 36.7 °F 23.3 °F 29.85 in ENE 2.0 mph 5.0 mph 58% 0.00 in
18:34 36.6 °F 23.2 °F 29.85 in Calm   3.0 mph 58% 0.00 in
18:39 36.5 °F 23.1 °F 29.85 in ENE 1.0 mph 3.0 mph 58% 0.00 in
18:44 36.3 °F 23.3 °F 29.84 in East 2.0 mph 5.0 mph 59% 0.00 in
18:49 36.1 °F 23.1 °F 29.84 in East 1.0 mph 5.0 mph 59% 0.00 in
18:54 35.9 °F 23.0 °F 29.83 in East 1.0 mph 3.0 mph 59% 0.00 in
18:59 35.7 °F 23.2 °F 29.83 in East 1.0 mph 3.0 mph 60% 0.00 in
19:04 35.6 °F 23.1 °F 29.83 in East 1.0 mph 3.0 mph 60% 0.00 in
19:09 35.5 °F 23.4 °F 29.83 in Calm   4.0 mph 61% 0.00 in
19:14 35.4 °F 23.3 °F 29.83 in Calm     61% 0.00 in
19:19 35.3 °F 23.2 °F 29.83 in Calm   1.0 mph 61% 0.00 in
19:24 35.2 °F 23.1 °F 29.83 in Calm     61% 0.00 in
19:29 35.0 °F 23.3 °F 29.83 in Calm     62% 0.00 in
19:34 34.9 °F 23.2 °F 29.83 in Calm     62% 0.00 in
19:39 34.9 °F 23.2 °F 29.83 in Calm     62% 0.00 in
19:44 34.9 °F 23.2 °F 29.82 in Calm     62% 0.00 in
19:49 35.0 °F 23.7 °F 29.82 in Calm   2.0 mph 63% 0.00 in
19:54 35.0 °F 23.3 °F 29.82 in East 1.0 mph 3.0 mph 62% 0.00 in
19:59 34.9 °F 23.6 °F 29.82 in East 1.0 mph 3.0 mph 63% 0.00 in
20:04 34.8 °F 23.5 °F 29.83 in ENE 2.0 mph 4.0 mph 63% 0.00 in
20:09 34.8 °F 23.5 °F 29.82 in ENE 1.0 mph 4.0 mph 63% 0.00 in
20:14 34.9 °F 23.2 °F 29.83 in East 1.0 mph 4.0 mph 62% 0.00 in
20:19 34.9 °F 23.2 °F 29.82 in East 2.0 mph 5.0 mph 62% 0.00 in
20:24 34.8 °F 23.1 °F 29.82 in East 1.0 mph 5.0 mph 62% 0.00 in
20:29 34.6 °F 22.9 °F 29.81 in Calm   3.0 mph 62% 0.00 in
20:34 34.6 °F 23.3 °F 29.81 in Calm   3.0 mph 63% 0.00 in
20:39 34.3 °F 23.4 °F 29.82 in ENE 2.0 mph 4.0 mph 64% 0.00 in
20:44 34.3 °F 23.4 °F 29.82 in NE 4.0 mph 4.0 mph 64% 0.00 in
20:49 34.2 °F 23.3 °F 29.82 in ENE 2.0 mph 4.0 mph 64% 0.00 in
20:54 34.1 °F 23.2 °F 29.81 in ENE 2.0 mph 6.0 mph 64% 0.00 in
20:59 34.0 °F 23.5 °F 29.81 in East 2.0 mph 6.0 mph 65% 0.00 in
21:04 33.9 °F 23.4 °F 29.81 in East 1.0 mph 3.0 mph 65% 0.00 in
21:09 33.8 °F 23.3 °F 29.81 in ESE 1.0 mph 3.0 mph 65% 0.00 in
21:14 33.6 °F 23.1 °F 29.80 in ESE 1.0 mph 5.0 mph 65% 0.00 in
21:19 33.5 °F 23.4 °F 29.80 in ESE 2.0 mph 5.0 mph 66% 0.00 in
21:24 33.4 °F 23.3 °F 29.80 in ESE 2.0 mph 3.0 mph 66% 0.00 in
21:34 33.4 °F 23.3 °F 29.81 in Calm   1.0 mph 66% 0.00 in
21:39 33.4 °F 23.6 °F 29.81 in SE 2.0 mph 3.0 mph 67% 0.00 in
21:44 33.5 °F 23.4 °F 29.80 in East 2.0 mph 3.0 mph 66% 0.00 in
21:49 33.4 °F 23.6 °F 29.80 in ESE 1.0 mph 3.0 mph 67% 0.00 in
21:54 33.4 °F 23.6 °F 29.80 in ESE 1.0 mph 3.0 mph 67% 0.00 in
21:59 33.3 °F 23.9 °F 29.80 in ESE 1.0 mph 3.0 mph 68% 0.00 in
22:04 33.3 °F 23.9 °F 29.80 in ESE 1.0 mph 2.0 mph 68% 0.00 in
22:09 33.4 °F 24.0 °F 29.79 in SE 1.0 mph 3.0 mph 68% 0.00 in
22:14 33.4 °F 24.0 °F 29.80 in ESE 1.0 mph 3.0 mph 68% 0.00 in
22:19 33.3 °F 23.9 °F 29.79 in Calm   1.0 mph 68% 0.00 in
22:24 33.4 °F 24.0 °F 29.78 in Calm   2.0 mph 68% 0.00 in
22:29 33.6 °F 24.2 °F 29.78 in SE 1.0 mph 3.0 mph 68% 0.00 in
22:34 33.6 °F 24.2 °F 29.78 in SE 1.0 mph 3.0 mph 68% 0.00 in
22:39 33.7 °F 24.3 °F 29.78 in Calm   1.0 mph 68% 0.00 in
22:44 33.8 °F 24.4 °F 29.77 in Calm   1.0 mph 68% 0.00 in
22:49 33.8 °F 24.4 °F 29.77 in Calm     68% 0.00 in
22:54 33.7 °F 24.6 °F 29.77 in Calm   1.0 mph 69% 0.00 in
22:59 33.8 °F 24.7 °F 29.77 in Calm     69% 0.00 in
23:04 33.8 °F 24.7 °F 29.76 in Calm     69% 0.00 in
23:09 33.8 °F 24.7 °F 29.76 in ESE 1.0 mph 3.0 mph 69% 0.00 in
23:14 33.8 °F 24.7 °F 29.76 in ESE 1.0 mph 2.0 mph 69% 0.00 in
23:19 33.8 °F 25.0 °F 29.75 in ESE 1.0 mph 2.0 mph 70% 0.00 in
23:24 33.9 °F 24.8 °F 29.75 in Calm   2.0 mph 69% 0.00 in
23:29 34.1 °F 25.0 °F 29.75 in Calm   1.0 mph 69% 0.00 in
23:39 34.3 °F 25.2 °F 29.75 in Calm   2.0 mph 69% 0.00 in
23:49 34.6 °F 25.5 °F 29.75 in Calm     69% 0.00 in
23:54 34.6 °F 25.5 °F 29.75 in Calm     69% 0.00 in
23:59 34.8 °F 25.7 °F 29.75 in Calm   2.0 mph 69% 0.00 in
Buffalo, New York, USA
Compliments of Weather Underground - 2.5 mb